Terminal Aerodrome Forecast
Issued by NWS

Home | Current Version | Previous Version | Graphics & Text | Print | Product List | Glossary On
Versions: 1 2 3 4 5 6 7 8 9 10 11 12 13 14 15 16 17 18 19 20 21 22 23 24 25 26 27 28
530
FTUS43 KBIS 132330
TAFJMS
TAF
KJMS 132330Z 1400/1424 33011KT P6SM OVC025
     FM140700 31005KT P6SM OVC015
     FM141700 35011G19KT P6SM BKN015
     FM142100 33011G19KT P6SM BKN025
     FM142300 32010KT P6SM BKN035=

USA.gov is the U.S. government's official web portal to all federal, state and local government web resources and services.